VISIB

Not for real navigation. The accuracy of this data is not assured See disclaimer for more information



ICAO NAME COUNTRY WIND Kt GUST Kt VIS m TEMP/DEW C BARO METAR
OITL Ardabil Iran 6 0 100 0/0 30.00 OITL 211751Z 08006KT 0100 R15/0800U R33/0700D FG VV002 00/00 Q1016
URMT Stavropol / Shpakovskoye Russia 6 0 100 0/0 30.06 URMT 211830Z 11006KT 0100 R07/0325N FZDZ FZFG VV001 M00/M00 Q1018 R07/120060 NOSIG RMK QBB030 OBST O
ULLI St. Peterburg Russia 2 0 200 -13/-15 30.36 ULLI 211830Z 27002KT 0200 0150NW R28R/P2000U PRFG BKN002 M13/M15 Q1028 R28R/410555 NOSIG RMK QBB060
UATG 2 0 200 -8/-9 30.33 UATG 211830Z 21002KT 0200 R14/0600 FZFG NSC M08/M09 Q1027 R14/CLRD70 TEMPO 0300 FZFG BKN005 RMK QFE7
YARG 3 0 250 26/24 29.71 YARG 211830Z AUTO 32003KT 0250 // ////// 26/24 Q1006

Show more